Petersburg, North Carolina
Current Conditions -  °F | °C
As of 6:55 PM on Wednesday 22 Oct 2014 (Local Time) from KMRN Reporting Station
Clear Clear  
Wind Chill: 52°   Ceiling: Unl
Heat Index: 52°   Visibility: 10mi
Dew Point: 38°   Wind: 13mph
Humidity: 59%   Direction: 320°NW
Pressure: 30.16"   Gusts: NA
Location:  35.7567°N, 81.7518°W
Report Text: KMRN 222255Z AUTO 32011KT 10SM CLR 11/03 A3016 RMK AO2 T01110033
Loading
Personal Weather Stations






























Interactive Weather Map
Tropical Storm Tracking
New forecast layout! Learn more

10-Day Weather Forecast

Advertisements
Track Severe Weather on mobile